sensor_id;sensor_type;location;lat;lon;timestamp;temperature;humidity
56426;DHT22;42330;43.620;3.856;2022-07-09T00:00:34;26.40;40.10
56426;DHT22;42330;43.620;3.856;2022-07-09T00:03:00;26.30;40.10
56426;DHT22;42330;43.620;3.856;2022-07-09T00:05:26;26.30;40.20
56426;DHT22;42330;43.620;3.856;2022-07-09T00:07:51;26.20;40.40
56426;DHT22;42330;43.620;3.856;2022-07-09T00:10:17;26.30;40.20
56426;DHT22;42330;43.620;3.856;2022-07-09T00:12:43;26.20;40.40
56426;DHT22;42330;43.620;3.856;2022-07-09T00:15:09;26.10;40.40
56426;DHT22;42330;43.620;3.856;2022-07-09T00:17:35;26.20;40.70
56426;DHT22;42330;43.620;3.856;2022-07-09T00:20:01;26.00;40.80
56426;DHT22;42330;43.620;3.856;2022-07-09T00:22:33;26.00;40.80
56426;DHT22;42330;43.620;3.856;2022-07-09T00:24:59;25.90;40.90
56426;DHT22;42330;43.620;3.856;2022-07-09T00:27:25;25.90;41.10
56426;DHT22;42330;43.620;3.856;2022-07-09T00:29:51;25.90;41.30
56426;DHT22;42330;43.620;3.856;2022-07-09T00:32:17;25.90;41.30
56426;DHT22;42330;43.620;3.856;2022-07-09T00:34:44;26.00;41.30
56426;DHT22;42330;43.620;3.856;2022-07-09T00:37:10;26.00;41.10
56426;DHT22;42330;43.620;3.856;2022-07-09T00:39:35;25.90;41.20
56426;DHT22;42330;43.620;3.856;2022-07-09T00:42:11;25.80;41.40
56426;DHT22;42330;43.620;3.856;2022-07-09T00:44:37;25.80;41.50
56426;DHT22;42330;43.620;3.856;2022-07-09T00:47:07;25.70;41.70
56426;DHT22;42330;43.620;3.856;2022-07-09T00:49:37;25.70;42.00
56426;DHT22;42330;43.620;3.856;2022-07-09T00:52:04;25.70;41.90
56426;DHT22;42330;43.620;3.856;2022-07-09T00:54:30;25.60;41.90
56426;DHT22;42330;43.620;3.856;2022-07-09T00:56:56;25.70;41.80
56426;DHT22;42330;43.620;3.856;2022-07-09T00:59:22;25.70;41.90
56426;DHT22;42330;43.620;3.856;2022-07-09T01:01:51;25.70;41.80
56426;DHT22;42330;43.620;3.856;2022-07-09T01:04:17;25.60;42.00
56426;DHT22;42330;43.620;3.856;2022-07-09T01:06:43;25.60;42.00
56426;DHT22;42330;43.620;3.856;2022-07-09T01:09:09;25.60;42.00
56426;DHT22;42330;43.620;3.856;2022-07-09T01:11:35;25.60;42.10
56426;DHT22;42330;43.620;3.856;2022-07-09T01:14:01;25.60;42.10
56426;DHT22;42330;43.620;3.856;2022-07-09T01:16:31;25.60;42.20
56426;DHT22;42330;43.620;3.856;2022-07-09T01:18:57;25.60;42.10
56426;DHT22;42330;43.620;3.856;2022-07-09T01:21:23;25.50;42.40
56426;DHT22;42330;43.620;3.856;2022-07-09T01:23:49;25.40;42.50
56426;DHT22;42330;43.620;3.856;2022-07-09T01:26:15;25.40;42.60
56426;DHT22;42330;43.620;3.856;2022-07-09T01:28:41;25.30;42.80
56426;DHT22;42330;43.620;3.856;2022-07-09T01:31:07;25.20;43.00
56426;DHT22;42330;43.620;3.856;2022-07-09T01:33:33;25.20;42.90
56426;DHT22;42330;43.620;3.856;2022-07-09T01:35:59;25.20;43.00
56426;DHT22;42330;43.620;3.856;2022-07-09T01:38:24;25.10;43.40
56426;DHT22;42330;43.620;3.856;2022-07-09T01:40:50;25.10;43.30
56426;DHT22;42330;43.620;3.856;2022-07-09T01:43:16;25.00;43.30
56426;DHT22;42330;43.620;3.856;2022-07-09T01:45:41;24.90;43.90
56426;DHT22;42330;43.620;3.856;2022-07-09T01:48:08;24.90;43.50
56426;DHT22;42330;43.620;3.856;2022-07-09T01:50:33;24.90;43.60
56426;DHT22;42330;43.620;3.856;2022-07-09T01:52:59;24.90;43.60
56426;DHT22;42330;43.620;3.856;2022-07-09T01:55:25;24.80;43.90
56426;DHT22;42330;43.620;3.856;2022-07-09T01:57:51;24.70;43.70
56426;DHT22;42330;43.620;3.856;2022-07-09T02:00:16;24.70;44.10
56426;DHT22;42330;43.620;3.856;2022-07-09T02:02:44;24.70;44.00
56426;DHT22;42330;43.620;3.856;2022-07-09T02:05:10;24.70;44.10
56426;DHT22;42330;43.620;3.856;2022-07-09T02:07:36;24.60;44.30
56426;DHT22;42330;43.620;3.856;2022-07-09T02:10:03;24.50;44.40
56426;DHT22;42330;43.620;3.856;2022-07-09T02:12:29;24.40;44.70
56426;DHT22;42330;43.620;3.856;2022-07-09T02:14:55;24.40;44.90
56426;DHT22;42330;43.620;3.856;2022-07-09T02:17:21;24.30;44.90
56426;DHT22;42330;43.620;3.856;2022-07-09T02:19:46;24.30;45.10
56426;DHT22;42330;43.620;3.856;2022-07-09T02:22:12;24.20;45.20
56426;DHT22;42330;43.620;3.856;2022-07-09T02:24:38;24.10;45.50
56426;DHT22;42330;43.620;3.856;2022-07-09T02:27:04;24.00;45.80
56426;DHT22;42330;43.620;3.856;2022-07-09T02:29:29;24.00;46.00
56426;DHT22;42330;43.620;3.856;2022-07-09T02:31:55;23.80;46.20
56426;DHT22;42330;43.620;3.856;2022-07-09T02:34:22;23.80;46.60
56426;DHT22;42330;43.620;3.856;2022-07-09T02:36:48;23.90;46.40
56426;DHT22;42330;43.620;3.856;2022-07-09T02:39:14;23.80;46.60
56426;DHT22;42330;43.620;3.856;2022-07-09T02:41:39;23.80;46.90
56426;DHT22;42330;43.620;3.856;2022-07-09T02:44:05;23.60;47.40
56426;DHT22;42330;43.620;3.856;2022-07-09T02:46:31;23.50;47.60
56426;DHT22;42330;43.620;3.856;2022-07-09T02:48:56;23.40;47.70
56426;DHT22;42330;43.620;3.856;2022-07-09T02:51:22;23.40;47.70
56426;DHT22;42330;43.620;3.856;2022-07-09T02:53:47;23.30;47.80
56426;DHT22;42330;43.620;3.856;2022-07-09T02:56:13;23.30;47.60
56426;DHT22;42330;43.620;3.856;2022-07-09T02:58:39;23.20;47.60
56426;DHT22;42330;43.620;3.856;2022-07-09T03:01:05;23.30;47.70
56426;DHT22;42330;43.620;3.856;2022-07-09T03:03:32;23.40;47.80
56426;DHT22;42330;43.620;3.856;2022-07-09T03:06:01;23.40;47.80
56426;DHT22;42330;43.620;3.856;2022-07-09T03:08:28;23.50;47.80
56426;DHT22;42330;43.620;3.856;2022-07-09T03:10:53;23.50;47.90
56426;DHT22;42330;43.620;3.856;2022-07-09T03:13:19;23.40;48.00
56426;DHT22;42330;43.620;3.856;2022-07-09T03:15:45;23.60;47.80
56426;DHT22;42330;43.620;3.856;2022-07-09T03:18:11;23.60;47.40
56426;DHT22;42330;43.620;3.856;2022-07-09T03:20:36;23.60;47.60
56426;DHT22;42330;43.620;3.856;2022-07-09T03:23:06;23.60;47.10
56426;DHT22;42330;43.620;3.856;2022-07-09T03:25:32;23.70;47.30
56426;DHT22;42330;43.620;3.856;2022-07-09T03:27:57;23.80;47.00
56426;DHT22;42330;43.620;3.856;2022-07-09T03:30:23;23.80;46.40
56426;DHT22;42330;43.620;3.856;2022-07-09T03:32:50;23.70;46.30
56426;DHT22;42330;43.620;3.856;2022-07-09T03:35:16;23.80;46.40
56426;DHT22;42330;43.620;3.856;2022-07-09T03:37:41;23.70;47.50
56426;DHT22;42330;43.620;3.856;2022-07-09T03:40:07;23.70;46.80
56426;DHT22;42330;43.620;3.856;2022-07-09T03:42:33;23.70;46.80
56426;DHT22;42330;43.620;3.856;2022-07-09T03:44:59;23.70;46.30
56426;DHT22;42330;43.620;3.856;2022-07-09T03:47:25;23.60;46.10
56426;DHT22;42330;43.620;3.856;2022-07-09T03:49:50;23.50;46.20
56426;DHT22;42330;43.620;3.856;2022-07-09T03:52:16;23.60;46.20
56426;DHT22;42330;43.620;3.856;2022-07-09T03:54:42;23.70;45.80
56426;DHT22;42330;43.620;3.856;2022-07-09T03:57:09;23.60;45.90
56426;DHT22;42330;43.620;3.856;2022-07-09T03:59:34;23.60;45.90
56426;DHT22;42330;43.620;3.856;2022-07-09T04:02:00;23.40;46.00
56426;DHT22;42330;43.620;3.856;2022-07-09T04:04:26;23.40;46.10
56426;DHT22;42330;43.620;3.856;2022-07-09T04:06:52;23.30;46.10
56426;DHT22;42330;43.620;3.856;2022-07-09T04:09:17;23.30;46.50
56426;DHT22;42330;43.620;3.856;2022-07-09T04:11:43;23.40;46.20
56426;DHT22;42330;43.620;3.856;2022-07-09T04:14:08;23.40;46.10
56426;DHT22;42330;43.620;3.856;2022-07-09T04:16:34;23.50;45.90
56426;DHT22;42330;43.620;3.856;2022-07-09T04:19:00;23.60;46.00
56426;DHT22;42330;43.620;3.856;2022-07-09T04:21:25;23.40;46.10
56426;DHT22;42330;43.620;3.856;2022-07-09T04:23:52;23.40;46.40
56426;DHT22;42330;43.620;3.856;2022-07-09T04:26:18;23.40;46.80
56426;DHT22;42330;43.620;3.856;2022-07-09T04:28:45;23.50;46.90
56426;DHT22;42330;43.620;3.856;2022-07-09T04:31:10;23.50;46.40
56426;DHT22;42330;43.620;3.856;2022-07-09T04:33:36;23.40;46.60
56426;DHT22;42330;43.620;3.856;2022-07-09T04:36:02;23.30;46.70
56426;DHT22;42330;43.620;3.856;2022-07-09T04:38:28;23.40;46.90
56426;DHT22;42330;43.620;3.856;2022-07-09T04:40:54;23.40;46.90
56426;DHT22;42330;43.620;3.856;2022-07-09T04:43:21;23.40;46.30
56426;DHT22;42330;43.620;3.856;2022-07-09T04:45:46;23.40;46.40
56426;DHT22;42330;43.620;3.856;2022-07-09T04:48:12;23.40;46.50
56426;DHT22;42330;43.620;3.856;2022-07-09T04:50:38;23.30;46.80
56426;DHT22;42330;43.620;3.856;2022-07-09T04:53:03;23.20;47.80
56426;DHT22;42330;43.620;3.856;2022-07-09T04:55:29;23.10;48.10
56426;DHT22;42330;43.620;3.856;2022-07-09T04:57:56;23.10;48.00
56426;DHT22;42330;43.620;3.856;2022-07-09T05:00:21;23.20;48.30
56426;DHT22;42330;43.620;3.856;2022-07-09T05:02:47;23.20;47.80
56426;DHT22;42330;43.620;3.856;2022-07-09T05:05:13;23.30;47.90
56426;DHT22;42330;43.620;3.856;2022-07-09T05:07:40;23.30;47.70
56426;DHT22;42330;43.620;3.856;2022-07-09T05:10:07;23.30;48.00
56426;DHT22;42330;43.620;3.856;2022-07-09T05:12:33;23.20;48.40
56426;DHT22;42330;43.620;3.856;2022-07-09T05:14:59;23.10;49.40
56426;DHT22;42330;43.620;3.856;2022-07-09T05:17:25;23.10;49.20
56426;DHT22;42330;43.620;3.856;2022-07-09T05:19:51;23.00;48.90
56426;DHT22;42330;43.620;3.856;2022-07-09T05:22:16;23.10;50.00
56426;DHT22;42330;43.620;3.856;2022-07-09T05:24:42;23.00;49.30
56426;DHT22;42330;43.620;3.856;2022-07-09T05:27:08;23.00;49.60
56426;DHT22;42330;43.620;3.856;2022-07-09T05:29:35;23.10;49.40
56426;DHT22;42330;43.620;3.856;2022-07-09T05:32:01;23.10;49.10
56426;DHT22;42330;43.620;3.856;2022-07-09T05:34:27;23.20;48.90
56426;DHT22;42330;43.620;3.856;2022-07-09T05:36:52;23.20;48.70
56426;DHT22;42330;43.620;3.856;2022-07-09T05:39:20;23.30;48.70
56426;DHT22;42330;43.620;3.856;2022-07-09T05:41:46;23.30;48.00
56426;DHT22;42330;43.620;3.856;2022-07-09T05:44:11;23.40;47.90
56426;DHT22;42330;43.620;3.856;2022-07-09T05:46:37;23.50;47.30
56426;DHT22;42330;43.620;3.856;2022-07-09T05:49:03;23.60;47.40
56426;DHT22;42330;43.620;3.856;2022-07-09T05:51:28;23.60;47.30
56426;DHT22;42330;43.620;3.856;2022-07-09T05:53:54;23.70;46.50
56426;DHT22;42330;43.620;3.856;2022-07-09T05:56:20;23.70;46.60
56426;DHT22;42330;43.620;3.856;2022-07-09T05:58:46;23.90;45.80
56426;DHT22;42330;43.620;3.856;2022-07-09T06:01:12;24.00;45.70
56426;DHT22;42330;43.620;3.856;2022-07-09T06:03:39;24.10;44.70
56426;DHT22;42330;43.620;3.856;2022-07-09T06:06:05;24.10;44.50
56426;DHT22;42330;43.620;3.856;2022-07-09T06:08:31;24.20;43.80
56426;DHT22;42330;43.620;3.856;2022-07-09T06:10:57;24.30;44.70
56426;DHT22;42330;43.620;3.856;2022-07-09T06:13:23;24.40;43.40
56426;DHT22;42330;43.620;3.856;2022-07-09T06:15:49;24.40;43.80
56426;DHT22;42330;43.620;3.856;2022-07-09T06:18:15;24.40;43.90
56426;DHT22;42330;43.620;3.856;2022-07-09T06:20:41;24.40;43.40
56426;DHT22;42330;43.620;3.856;2022-07-09T06:23:07;24.50;43.00
56426;DHT22;42330;43.620;3.856;2022-07-09T06:25:33;24.60;43.30
56426;DHT22;42330;43.620;3.856;2022-07-09T06:27:58;24.60;43.00
56426;DHT22;42330;43.620;3.856;2022-07-09T06:30:24;24.70;42.90
56426;DHT22;42330;43.620;3.856;2022-07-09T06:32:50;24.80;43.70
56426;DHT22;42330;43.620;3.856;2022-07-09T06:35:16;24.90;42.30
56426;DHT22;42330;43.620;3.856;2022-07-09T06:37:41;24.90;42.50
56426;DHT22;42330;43.620;3.856;2022-07-09T06:40:08;25.00;42.30
56426;DHT22;42330;43.620;3.856;2022-07-09T06:42:33;25.00;42.20
56426;DHT22;42330;43.620;3.856;2022-07-09T06:44:59;25.10;42.20
56426;DHT22;42330;43.620;3.856;2022-07-09T06:47:25;25.20;42.50
56426;DHT22;42330;43.620;3.856;2022-07-09T06:49:50;25.30;41.50
56426;DHT22;42330;43.620;3.856;2022-07-09T06:52:16;25.40;41.60
56426;DHT22;42330;43.620;3.856;2022-07-09T06:54:42;25.40;40.90
56426;DHT22;42330;43.620;3.856;2022-07-09T06:57:08;25.50;40.90
56426;DHT22;42330;43.620;3.856;2022-07-09T06:59:35;25.60;41.30
56426;DHT22;42330;43.620;3.856;2022-07-09T07:02:01;25.60;40.60
56426;DHT22;42330;43.620;3.856;2022-07-09T07:04:27;25.70;40.60
56426;DHT22;42330;43.620;3.856;2022-07-09T07:06:53;25.80;40.60
56426;DHT22;42330;43.620;3.856;2022-07-09T07:09:19;25.80;40.50
56426;DHT22;42330;43.620;3.856;2022-07-09T07:11:47;25.90;40.50
56426;DHT22;42330;43.620;3.856;2022-07-09T07:14:13;26.00;40.70
56426;DHT22;42330;43.620;3.856;2022-07-09T07:16:39;26.10;40.90
56426;DHT22;42330;43.620;3.856;2022-07-09T07:19:05;26.20;41.30
56426;DHT22;42330;43.620;3.856;2022-07-09T07:21:30;26.20;40.70
56426;DHT22;42330;43.620;3.856;2022-07-09T07:23:56;26.40;40.70
56426;DHT22;42330;43.620;3.856;2022-07-09T07:26:22;26.50;40.70
56426;DHT22;42330;43.620;3.856;2022-07-09T07:28:47;26.60;40.20
56426;DHT22;42330;43.620;3.856;2022-07-09T07:31:15;26.60;40.20
56426;DHT22;42330;43.620;3.856;2022-07-09T07:33:41;26.60;39.80
56426;DHT22;42330;43.620;3.856;2022-07-09T07:36:06;26.70;40.00
56426;DHT22;42330;43.620;3.856;2022-07-09T07:38:34;26.70;40.00
56426;DHT22;42330;43.620;3.856;2022-07-09T07:41:00;26.80;39.70
56426;DHT22;42330;43.620;3.856;2022-07-09T07:43:25;26.90;40.10
56426;DHT22;42330;43.620;3.856;2022-07-09T07:45:51;26.80;39.90
56426;DHT22;42330;43.620;3.856;2022-07-09T07:48:17;26.90;40.40
56426;DHT22;42330;43.620;3.856;2022-07-09T07:50:42;27.00;40.20
56426;DHT22;42330;43.620;3.856;2022-07-09T07:53:08;27.00;39.80
56426;DHT22;42330;43.620;3.856;2022-07-09T07:55:34;27.00;40.30
56426;DHT22;42330;43.620;3.856;2022-07-09T07:58:00;27.10;39.70
56426;DHT22;42330;43.620;3.856;2022-07-09T08:00:26;27.20;40.10
56426;DHT22;42330;43.620;3.856;2022-07-09T08:02:51;27.20;40.20
56426;DHT22;42330;43.620;3.856;2022-07-09T08:05:17;27.30;40.20
56426;DHT22;42330;43.620;3.856;2022-07-09T08:07:43;27.50;40.00
56426;DHT22;42330;43.620;3.856;2022-07-09T08:10:09;27.50;39.50
56426;DHT22;42330;43.620;3.856;2022-07-09T08:12:35;27.50;39.70
56426;DHT22;42330;43.620;3.856;2022-07-09T08:15:00;27.60;39.60
56426;DHT22;42330;43.620;3.856;2022-07-09T08:17:26;27.60;39.30
56426;DHT22;42330;43.620;3.856;2022-07-09T08:19:52;27.70;39.30
56426;DHT22;42330;43.620;3.856;2022-07-09T08:22:17;27.80;38.90
56426;DHT22;42330;43.620;3.856;2022-07-09T08:24:43;27.90;38.20
56426;DHT22;42330;43.620;3.856;2022-07-09T08:27:09;27.90;38.60
56426;DHT22;42330;43.620;3.856;2022-07-09T08:29:34;28.00;38.90
56426;DHT22;42330;43.620;3.856;2022-07-09T08:32:00;28.10;39.00
56426;DHT22;42330;43.620;3.856;2022-07-09T08:34:26;28.20;39.10
56426;DHT22;42330;43.620;3.856;2022-07-09T08:36:51;28.20;39.10
56426;DHT22;42330;43.620;3.856;2022-07-09T08:39:17;28.30;38.40
56426;DHT22;42330;43.620;3.856;2022-07-09T08:41:43;28.40;38.90
56426;DHT22;42330;43.620;3.856;2022-07-09T08:44:11;28.40;38.60
56426;DHT22;42330;43.620;3.856;2022-07-09T08:46:37;28.40;38.00
56426;DHT22;42330;43.620;3.856;2022-07-09T08:49:03;28.40;37.80
56426;DHT22;42330;43.620;3.856;2022-07-09T08:51:30;28.50;37.60
56426;DHT22;42330;43.620;3.856;2022-07-09T08:53:56;28.70;38.00
56426;DHT22;42330;43.620;3.856;2022-07-09T08:56:21;28.70;38.20
56426;DHT22;42330;43.620;3.856;2022-07-09T08:58:47;28.70;38.10
56426;DHT22;42330;43.620;3.856;2022-07-09T09:01:14;28.70;38.00
56426;DHT22;42330;43.620;3.856;2022-07-09T09:03:42;28.70;37.80
56426;DHT22;42330;43.620;3.856;2022-07-09T09:06:09;28.70;38.70
56426;DHT22;42330;43.620;3.856;2022-07-09T09:08:40;28.80;39.60
56426;DHT22;42330;43.620;3.856;2022-07-09T09:11:12;29.00;37.70
56426;DHT22;42330;43.620;3.856;2022-07-09T09:13:43;29.20;37.80
56426;DHT22;42330;43.620;3.856;2022-07-09T09:16:10;29.40;38.40
56426;DHT22;42330;43.620;3.856;2022-07-09T09:18:47;29.40;37.70
56426;DHT22;42330;43.620;3.856;2022-07-09T09:21:14;29.50;38.40
56426;DHT22;42330;43.620;3.856;2022-07-09T09:23:45;29.60;36.80
56426;DHT22;42330;43.620;3.856;2022-07-09T09:26:16;29.70;37.50
56426;DHT22;42330;43.620;3.856;2022-07-09T09:28:54;29.80;37.70
56426;DHT22;42330;43.620;3.856;2022-07-09T09:31:20;29.80;37.10
56426;DHT22;42330;43.620;3.856;2022-07-09T09:33:46;29.90;36.70
56426;DHT22;42330;43.620;3.856;2022-07-09T09:36:22;29.90;35.90
56426;DHT22;42330;43.620;3.856;2022-07-09T09:38:48;29.90;37.40
56426;DHT22;42330;43.620;3.856;2022-07-09T09:41:24;30.10;36.20
56426;DHT22;42330;43.620;3.856;2022-07-09T09:43:51;30.20;37.60
56426;DHT22;42330;43.620;3.856;2022-07-09T09:46:18;30.20;36.70
56426;DHT22;42330;43.620;3.856;2022-07-09T09:48:44;30.40;36.70
56426;DHT22;42330;43.620;3.856;2022-07-09T09:51:10;30.40;36.50
56426;DHT22;42330;43.620;3.856;2022-07-09T09:53:39;30.60;36.00
56426;DHT22;42330;43.620;3.856;2022-07-09T09:56:06;30.80;35.90
56426;DHT22;42330;43.620;3.856;2022-07-09T09:58:32;30.80;36.40
56426;DHT22;42330;43.620;3.856;2022-07-09T10:00:58;30.90;35.50
56426;DHT22;42330;43.620;3.856;2022-07-09T10:03:24;31.00;36.20
56426;DHT22;42330;43.620;3.856;2022-07-09T10:05:50;31.20;36.20
56426;DHT22;42330;43.620;3.856;2022-07-09T10:08:16;31.40;35.80
56426;DHT22;42330;43.620;3.856;2022-07-09T10:10:51;31.50;36.10
56426;DHT22;42330;43.620;3.856;2022-07-09T10:13:21;31.50;35.50
56426;DHT22;42330;43.620;3.856;2022-07-09T10:15:50;31.50;35.20
56426;DHT22;42330;43.620;3.856;2022-07-09T10:18:19;31.80;35.90
56426;DHT22;42330;43.620;3.856;2022-07-09T10:20:45;31.90;35.40
56426;DHT22;42330;43.620;3.856;2022-07-09T10:23:24;32.00;35.20
56426;DHT22;42330;43.620;3.856;2022-07-09T10:25:51;32.20;35.50
56426;DHT22;42330;43.620;3.856;2022-07-09T10:28:22;32.50;35.10
56426;DHT22;42330;43.620;3.856;2022-07-09T10:30:48;32.50;34.50
56426;DHT22;42330;43.620;3.856;2022-07-09T10:33:22;32.70;35.10
56426;DHT22;42330;43.620;3.856;2022-07-09T10:35:50;32.90;34.80
56426;DHT22;42330;43.620;3.856;2022-07-09T10:38:20;33.10;36.00
56426;DHT22;42330;43.620;3.856;2022-07-09T10:40:56;33.50;35.40
56426;DHT22;42330;43.620;3.856;2022-07-09T10:43:38;33.50;34.10
56426;DHT22;42330;43.620;3.856;2022-07-09T10:46:12;33.60;34.60
56426;DHT22;42330;43.620;3.856;2022-07-09T10:48:38;33.80;35.20
56426;DHT22;42330;43.620;3.856;2022-07-09T10:51:04;34.00;34.70
56426;DHT22;42330;43.620;3.856;2022-07-09T10:53:29;34.20;33.90
56426;DHT22;42330;43.620;3.856;2022-07-09T10:55:55;34.40;33.80
56426;DHT22;42330;43.620;3.856;2022-07-09T10:58:23;34.40;33.80
56426;DHT22;42330;43.620;3.856;2022-07-09T11:00:57;34.50;34.00
56426;DHT22;42330;43.620;3.856;2022-07-09T11:03:27;34.80;34.10
56426;DHT22;42330;43.620;3.856;2022-07-09T11:05:53;34.90;33.30
56426;DHT22;42330;43.620;3.856;2022-07-09T11:08:19;35.00;33.90
56426;DHT22;42330;43.620;3.856;2022-07-09T11:10:45;35.10;33.60
56426;DHT22;42330;43.620;3.856;2022-07-09T11:13:11;35.30;33.50
56426;DHT22;42330;43.620;3.856;2022-07-09T11:15:38;35.30;33.00
56426;DHT22;42330;43.620;3.856;2022-07-09T11:18:27;35.30;33.30
56426;DHT22;42330;43.620;3.856;2022-07-09T11:20:53;35.50;33.40
56426;DHT22;42330;43.620;3.856;2022-07-09T11:23:18;35.70;33.00
56426;DHT22;42330;43.620;3.856;2022-07-09T11:25:44;35.70;32.50
56426;DHT22;42330;43.620;3.856;2022-07-09T11:28:38;36.00;32.30
56426;DHT22;42330;43.620;3.856;2022-07-09T11:31:04;35.40;32.00
56426;DHT22;42330;43.620;3.856;2022-07-09T11:33:31;35.50;32.60
56426;DHT22;42330;43.620;3.856;2022-07-09T11:36:15;35.70;32.10
56426;DHT22;42330;43.620;3.856;2022-07-09T11:38:52;35.90;32.50
56426;DHT22;42330;43.620;3.856;2022-07-09T11:41:19;36.00;32.00
56426;DHT22;42330;43.620;3.856;2022-07-09T11:43:51;35.70;32.10
56426;DHT22;42330;43.620;3.856;2022-07-09T11:46:20;35.80;31.90
56426;DHT22;42330;43.620;3.856;2022-07-09T11:51:32;35.90;32.00
56426;DHT22;42330;43.620;3.856;2022-07-09T11:53:59;35.80;31.30
56426;DHT22;42330;43.620;3.856;2022-07-09T11:56:25;35.90;31.60
56426;DHT22;42330;43.620;3.856;2022-07-09T11:58:52;36.00;31.90
56426;DHT22;42330;43.620;3.856;2022-07-09T12:01:18;36.00;32.10
56426;DHT22;42330;43.620;3.856;2022-07-09T12:03:48;35.80;30.70
56426;DHT22;42330;43.620;3.856;2022-07-09T12:06:14;35.90;31.30
56426;DHT22;42330;43.620;3.856;2022-07-09T12:08:40;35.90;31.20
56426;DHT22;42330;43.620;3.856;2022-07-09T12:11:06;35.80;31.80
56426;DHT22;42330;43.620;3.856;2022-07-09T12:13:32;35.80;31.10
56426;DHT22;42330;43.620;3.856;2022-07-09T12:15:58;35.90;30.70
56426;DHT22;42330;43.620;3.856;2022-07-09T12:18:24;36.00;31.10
56426;DHT22;42330;43.620;3.856;2022-07-09T12:20:49;35.90;31.00
56426;DHT22;42330;43.620;3.856;2022-07-09T12:23:15;36.00;31.30
56426;DHT22;42330;43.620;3.856;2022-07-09T12:25:41;36.00;31.10
56426;DHT22;42330;43.620;3.856;2022-07-09T12:28:07;36.00;31.10
56426;DHT22;42330;43.620;3.856;2022-07-09T12:30:33;36.20;31.20
56426;DHT22;42330;43.620;3.856;2022-07-09T12:32:58;36.20;30.70
56426;DHT22;42330;43.620;3.856;2022-07-09T12:35:25;36.20;31.30
56426;DHT22;42330;43.620;3.856;2022-07-09T12:37:51;36.30;32.00
56426;DHT22;42330;43.620;3.856;2022-07-09T12:40:17;36.20;31.50
56426;DHT22;42330;43.620;3.856;2022-07-09T12:42:42;36.30;31.80
56426;DHT22;42330;43.620;3.856;2022-07-09T12:45:09;36.00;32.00
56426;DHT22;42330;43.620;3.856;2022-07-09T12:47:34;36.00;31.80
56426;DHT22;42330;43.620;3.856;2022-07-09T12:50:00;36.10;32.50
56426;DHT22;42330;43.620;3.856;2022-07-09T12:52:30;36.20;32.20
56426;DHT22;42330;43.620;3.856;2022-07-09T12:54:58;36.40;32.00
56426;DHT22;42330;43.620;3.856;2022-07-09T12:57:25;36.50;31.70
56426;DHT22;42330;43.620;3.856;2022-07-09T12:59:50;36.20;30.80
56426;DHT22;42330;43.620;3.856;2022-07-09T13:02:16;36.20;30.60
56426;DHT22;42330;43.620;3.856;2022-07-09T13:04:42;36.30;30.80
56426;DHT22;42330;43.620;3.856;2022-07-09T13:07:07;36.50;30.70
56426;DHT22;42330;43.620;3.856;2022-07-09T13:09:33;36.50;30.20
56426;DHT22;42330;43.620;3.856;2022-07-09T13:11:59;36.70;30.50
56426;DHT22;42330;43.620;3.856;2022-07-09T13:14:25;36.50;30.00
56426;DHT22;42330;43.620;3.856;2022-07-09T13:16:51;36.50;30.90
56426;DHT22;42330;43.620;3.856;2022-07-09T13:19:16;36.50;30.10
56426;DHT22;42330;43.620;3.856;2022-07-09T13:21:42;36.60;30.50
56426;DHT22;42330;43.620;3.856;2022-07-09T13:24:08;36.60;29.80
56426;DHT22;42330;43.620;3.856;2022-07-09T13:26:34;36.50;29.50
56426;DHT22;42330;43.620;3.856;2022-07-09T13:28:59;36.60;30.10
56426;DHT22;42330;43.620;3.856;2022-07-09T13:31:25;36.50;29.50
56426;DHT22;42330;43.620;3.856;2022-07-09T13:33:51;36.50;30.40
56426;DHT22;42330;43.620;3.856;2022-07-09T13:36:17;36.50;29.50
56426;DHT22;42330;43.620;3.856;2022-07-09T13:38:43;36.60;29.70
56426;DHT22;42330;43.620;3.856;2022-07-09T13:41:08;36.70;29.70
56426;DHT22;42330;43.620;3.856;2022-07-09T13:43:34;36.60;29.50
56426;DHT22;42330;43.620;3.856;2022-07-09T13:46:00;36.50;29.80
56426;DHT22;42330;43.620;3.856;2022-07-09T13:48:26;36.70;29.70
56426;DHT22;42330;43.620;3.856;2022-07-09T13:50:53;36.70;32.10
56426;DHT22;42330;43.620;3.856;2022-07-09T13:53:19;36.60;33.20
56426;DHT22;42330;43.620;3.856;2022-07-09T13:55:46;36.60;32.90
56426;DHT22;42330;43.620;3.856;2022-07-09T13:58:11;36.40;33.30
56426;DHT22;42330;43.620;3.856;2022-07-09T14:00:38;36.30;33.10
56426;DHT22;42330;43.620;3.856;2022-07-09T14:03:04;36.30;33.10
56426;DHT22;42330;43.620;3.856;2022-07-09T14:05:30;36.30;33.40
56426;DHT22;42330;43.620;3.856;2022-07-09T14:07:55;36.30;33.80
56426;DHT22;42330;43.620;3.856;2022-07-09T14:10:22;36.20;33.10
56426;DHT22;42330;43.620;3.856;2022-07-09T14:12:48;36.00;33.70
56426;DHT22;42330;43.620;3.856;2022-07-09T14:15:14;36.00;33.80
56426;DHT22;42330;43.620;3.856;2022-07-09T14:17:39;36.00;33.80
56426;DHT22;42330;43.620;3.856;2022-07-09T14:20:07;36.20;34.00
56426;DHT22;42330;43.620;3.856;2022-07-09T14:22:33;36.00;33.20
56426;DHT22;42330;43.620;3.856;2022-07-09T14:24:59;36.00;33.50
56426;DHT22;42330;43.620;3.856;2022-07-09T14:27:25;36.10;34.00
56426;DHT22;42330;43.620;3.856;2022-07-09T14:29:51;36.20;33.70
56426;DHT22;42330;43.620;3.856;2022-07-09T14:32:16;36.00;33.50
56426;DHT22;42330;43.620;3.856;2022-07-09T14:34:42;36.00;33.90
56426;DHT22;42330;43.620;3.856;2022-07-09T14:37:08;35.90;33.60
56426;DHT22;42330;43.620;3.856;2022-07-09T14:39:34;35.80;33.30
56426;DHT22;42330;43.620;3.856;2022-07-09T14:41:59;35.40;33.50
56426;DHT22;42330;43.620;3.856;2022-07-09T14:44:25;35.30;33.90
56426;DHT22;42330;43.620;3.856;2022-07-09T14:46:51;35.30;33.90
56426;DHT22;42330;43.620;3.856;2022-07-09T14:49:18;35.40;33.90
56426;DHT22;42330;43.620;3.856;2022-07-09T14:51:44;35.40;33.90
56426;DHT22;42330;43.620;3.856;2022-07-09T14:54:10;35.50;33.70
56426;DHT22;42330;43.620;3.856;2022-07-09T14:56:35;35.50;34.00
56426;DHT22;42330;43.620;3.856;2022-07-09T14:59:01;35.40;33.00
56426;DHT22;42330;43.620;3.856;2022-07-09T15:01:27;35.40;34.10
56426;DHT22;42330;43.620;3.856;2022-07-09T15:03:52;35.30;33.20
56426;DHT22;42330;43.620;3.856;2022-07-09T15:06:18;35.30;33.90
56426;DHT22;42330;43.620;3.856;2022-07-09T15:08:44;35.30;33.20
56426;DHT22;42330;43.620;3.856;2022-07-09T15:11:10;35.30;33.40
56426;DHT22;42330;43.620;3.856;2022-07-09T15:13:36;35.40;33.20
56426;DHT22;42330;43.620;3.856;2022-07-09T15:16:02;35.40;33.30
56426;DHT22;42330;43.620;3.856;2022-07-09T15:18:28;35.40;33.50
56426;DHT22;42330;43.620;3.856;2022-07-09T15:20:54;35.40;33.20
56426;DHT22;42330;43.620;3.856;2022-07-09T15:23:20;35.20;33.60
56426;DHT22;42330;43.620;3.856;2022-07-09T15:25:46;35.00;33.00
56426;DHT22;42330;43.620;3.856;2022-07-09T15:28:11;34.80;34.30